Back to Top

Language: 

My Weather Underground Personal Weather Station Historical Data with Graphs...

Delerius Weather Station Historical Data
Daily Summary for November 13, 2017 Units:  English    Metric   Both
« Previous Day
Next Day »
Daily Weekly Monthly Yearly Custom
  High: Low: Average:
Temperature: 45.7 °F 34.3 °F 40.5 °F
Dew Point: 42.2 °F 29.9 °F 34.1 °F
Humidity: 88 % 67 % 78 %
Wind Speed: 12.0 mph 0.0 mph 5 mph
Wind Gust: 19.0 mph - -
Wind:- - West
Pressure: 30.33 in 30.13 in -
Precipitation: 0.00 in    
Historical Graphs
 
 
Tabular Data for November 13, 2017
Time Temperature Dew Point Pressure Wind Wind Speed Wind Gust Humidity Rainfall Rate (Hourly) solar Conditions
00:02 37.6 °F 30.7 °F 30.21 in WNW 7.0 mph 12.0 mph 76 % 0.00 in 0 W/m2
00:07 37.4 °F 30.5 °F 30.21 in WNW 7.0 mph 12.0 mph 76 % 0.00 in 0 W/m2
00:12 37.2 °F 30.3 °F 30.21 in WNW 6.0 mph 11.0 mph 76 % 0.00 in 0 W/m2
00:18 37.2 °F 30.7 °F 30.21 in NW 7.0 mph 11.0 mph 77 % 0.00 in 0 W/m2
00:23 37.4 °F 30.8 °F 30.21 in NW 7.0 mph 12.0 mph 77 % 0.00 in 0 W/m2
00:28 37.8 °F 31.2 °F 30.22 in NW 10.0 mph 15.0 mph 77 % 0.00 in 0 W/m2
00:33 37.9 °F 31.0 °F 30.22 in NW 9.0 mph 14.0 mph 76 % 0.00 in 0 W/m2
00:38 37.9 °F 31.0 °F 30.22 in NW 8.0 mph 12.0 mph 76 % 0.00 in 0 W/m2
00:43 37.9 °F 31.0 °F 30.22 in NW 9.0 mph 16.0 mph 76 % 0.00 in 0 W/m2
00:48 37.9 °F 31.0 °F 30.22 in NW 7.0 mph 13.0 mph 76 % 0.00 in 0 W/m2
00:53 37.9 °F 31.0 °F 30.22 in WNW 8.0 mph 14.0 mph 76 % 0.00 in 0 W/m2
00:58 37.8 °F 30.9 °F 30.22 in NW 7.0 mph 13.0 mph 76 % 0.00 in 0 W/m2
01:03 37.8 °F 31.2 °F 30.23 in WNW 7.0 mph 11.0 mph 77 % 0.00 in 0 W/m2
01:08 37.8 °F 31.2 °F 30.23 in NW 9.0 mph 15.0 mph 77 % 0.00 in 0 W/m2
01:13 37.8 °F 31.2 °F 30.22 in WNW 11.0 mph 15.0 mph 77 % 0.00 in 0 W/m2
01:18 37.8 °F 31.2 °F 30.22 in NW 7.0 mph 13.0 mph 77 % 0.00 in 0 W/m2
01:23 37.9 °F 31.4 °F 30.22 in NW 8.0 mph 15.0 mph 77 % 0.00 in 0 W/m2
01:28 37.9 °F 31.4 °F 30.22 in NW 7.0 mph 12.0 mph 77 % 0.00 in 0 W/m2
01:33 37.9 °F 31.4 °F 30.23 in NW 9.0 mph 15.0 mph 77 % 0.00 in 0 W/m2
01:38 37.9 °F 31.4 °F 30.23 in NW 7.0 mph 13.0 mph 77 % 0.00 in 0 W/m2
01:43 37.9 °F 31.4 °F 30.22 in NW 7.0 mph 13.0 mph 77 % 0.00 in 0 W/m2
01:48 37.9 °F 31.4 °F 30.23 in NW 7.0 mph 14.0 mph 77 % 0.00 in 0 W/m2
01:53 37.9 °F 31.4 °F 30.23 in NW 7.0 mph 12.0 mph 77 % 0.00 in 0 W/m2
01:58 37.9 °F 31.4 °F 30.23 in NW 7.0 mph 11.0 mph 77 % 0.00 in 0 W/m2
02:03 37.9 °F 31.4 °F 30.23 in NW 8.0 mph 14.0 mph 77 % 0.00 in 0 W/m2
02:08 37.9 °F 31.4 °F 30.23 in WNW 8.0 mph 12.0 mph 77 % 0.00 in 0 W/m2
02:13 37.9 °F 31.7 °F 30.24 in WNW 5.0 mph 9.0 mph 78 % 0.00 in 0 W/m2
02:18 37.8 °F 31.5 °F 30.24 in WNW 6.0 mph 10.0 mph 78 % 0.00 in 0 W/m2
02:24 37.4 °F 31.2 °F 30.24 in WNW 7.0 mph 11.0 mph 78 % 0.00 in 0 W/m2
02:29 37.2 °F 31.0 °F 30.24 in WNW 6.0 mph 10.0 mph 78 % 0.00 in 0 W/m2
02:34 36.9 °F 31.0 °F 30.24 in WNW 6.0 mph 12.0 mph 79 % 0.00 in 0 W/m2
02:39 36.7 °F 30.8 °F 30.24 in WNW 5.0 mph 6.0 mph 79 % 0.00 in 0 W/m2
02:44 36.5 °F 30.9 °F 30.24 in WNW 5.0 mph 8.0 mph 80 % 0.00 in 0 W/m2
02:49 36.3 °F 30.7 °F 30.24 in WNW 6.0 mph 9.0 mph 80 % 0.00 in 0 W/m2
02:54 36.1 °F 30.6 °F 30.24 in WNW 7.0 mph 10.0 mph 80 % 0.00 in 0 W/m2
02:59 36.1 °F 30.9 °F 30.24 in WNW 5.0 mph 11.0 mph 81 % 0.00 in 0 W/m2
03:04 36.0 °F 30.7 °F 30.24 in WNW 5.0 mph 8.0 mph 81 % 0.00 in 0 W/m2
03:09 36.0 °F 30.7 °F 30.25 in WNW 5.0 mph 9.0 mph 81 % 0.00 in 0 W/m2
03:15 36.0 °F 30.7 °F 30.25 in WNW 5.0 mph 9.0 mph 81 % 0.00 in 0 W/m2
03:20 36.0 °F 30.7 °F 30.25 in WNW 5.0 mph 9.0 mph 81 % 0.00 in 0 W/m2
03:21 36.0 °F 30.7 °F 30.25 in WNW 5.0 mph 7.0 mph 81 % 0.00 in 0 W/m2
03:23 36.0 °F 30.7 °F 30.25 in WNW 4.0 mph 7.0 mph 81 % 0.00 in 0 W/m2
03:24 36.0 °F 30.7 °F 30.25 in WNW 4.0 mph 9.0 mph 81 % 0.00 in 0 W/m2
03:29 35.8 °F 30.5 °F 30.25 in WNW 5.0 mph 9.0 mph 81 % 0.00 in 0 W/m2
03:34 35.8 °F 30.8 °F 30.25 in WNW 6.0 mph 9.0 mph 82 % 0.00 in 0 W/m2
03:39 35.6 °F 30.6 °F 30.25 in WNW 6.0 mph 10.0 mph 82 % 0.00 in 0 W/m2
03:44 35.6 °F 30.6 °F 30.25 in WNW 5.0 mph 8.0 mph 82 % 0.00 in 0 W/m2
03:49 35.4 °F 30.5 °F 30.26 in WNW 4.0 mph 6.0 mph 82 % 0.00 in 0 W/m2
03:55 35.4 °F 30.5 °F 30.26 in WNW 5.0 mph 10.0 mph 82 % 0.00 in 0 W/m2
04:00 35.4 °F 30.5 °F 30.26 in WNW 4.0 mph 7.0 mph 82 % 0.00 in 0 W/m2
04:04 35.2 °F 30.3 °F 30.26 in WNW 4.0 mph 9.0 mph 82 % 0.00 in 0 W/m2
04:10 35.4 °F 30.8 °F 30.26 in WNW 5.0 mph 10.0 mph 83 % 0.00 in 0 W/m2
04:15 35.4 °F 30.8 °F 30.26 in WNW 6.0 mph 9.0 mph 83 % 0.00 in 0 W/m2
04:20 35.4 °F 30.5 °F 30.26 in WNW 5.0 mph 8.0 mph 82 % 0.00 in 0 W/m2
04:25 35.2 °F 30.3 °F 30.26 in WNW 5.0 mph 7.0 mph 82 % 0.00 in 0 W/m2
04:30 35.2 °F 30.3 °F 30.26 in WNW 5.0 mph 8.0 mph 82 % 0.00 in 0 W/m2
04:35 35.1 °F 30.1 °F 30.27 in WNW 4.0 mph 8.0 mph 82 % 0.00 in 0 W/m2
04:40 34.9 °F 30.2 °F 30.27 in WNW 3.0 mph 6.0 mph 83 % 0.00 in 0 W/m2
04:50 34.7 °F 30.1 °F 30.27 in WNW 6.0 mph 9.0 mph 83 % 0.00 in 0 W/m2
04:55 34.7 °F 30.1 °F 30.27 in WNW 5.0 mph 8.0 mph 83 % 0.00 in 0 W/m2
05:00 34.5 °F 29.9 °F 30.27 in WNW 4.0 mph 7.0 mph 83 % 0.00 in 0 W/m2
05:05 34.5 °F 30.2 °F 30.27 in NW 5.0 mph 9.0 mph 84 % 0.00 in 0 W/m2
05:10 34.3 °F 30.0 °F 30.27 in WNW 5.0 mph 8.0 mph 84 % 0.00 in 0 W/m2
05:15 34.5 °F 30.2 °F 30.27 in WNW 6.0 mph 9.0 mph 84 % 0.00 in 0 W/m2
05:20 34.5 °F 30.2 °F 30.27 in WNW 6.0 mph 10.0 mph 84 % 0.00 in 0 W/m2
05:25 34.5 °F 30.2 °F 30.27 in WNW 4.0 mph 8.0 mph 84 % 0.00 in 0 W/m2
05:30 34.7 °F 30.4 °F 30.27 in WNW 4.0 mph 9.0 mph 84 % 0.00 in 0 W/m2
05:32 34.7 °F 30.4 °F 30.28 in WNW 3.0 mph 5.0 mph 84 % 0.00 in 0 W/m2
05:37 34.5 °F 29.9 °F 30.28 in WNW 3.0 mph 6.0 mph 83 % 0.00 in 0 W/m2
05:42 34.3 °F 30.0 °F 30.27 in NW 5.0 mph 9.0 mph 84 % 0.00 in 0 W/m2
05:47 34.3 °F 30.0 °F 30.28 in NW 4.0 mph 8.0 mph 84 % 0.00 in 0 W/m2
05:51 34.3 °F 30.0 °F 30.27 in NW 7.0 mph 11.0 mph 84 % 0.00 in 0 W/m2
05:56 34.5 °F 30.2 °F 30.27 in NW 5.0 mph 7.0 mph 84 % 0.00 in 0 W/m2
05:58 34.7 °F 30.4 °F 30.27 in NW 4.0 mph 7.0 mph 84 % 0.00 in 0 W/m2
06:03 34.7 °F 30.4 °F 30.27 in NW 3.0 mph 7.0 mph 84 % 0.00 in 0 W/m2
06:08 34.9 °F 30.2 °F 30.28 in NW 3.0 mph 6.0 mph 83 % 0.00 in 0 W/m2
06:13 34.9 °F 30.2 °F 30.28 in NW 4.0 mph 8.0 mph 83 % 0.00 in 0 W/m2
06:18 34.9 °F 30.2 °F 30.28 in NW 5.0 mph 9.0 mph 83 % 0.00 in 0 W/m2
06:23 34.9 °F 30.2 °F 30.28 in NW 4.0 mph 9.0 mph 83 % 0.00 in 0 W/m2
06:28 34.9 °F 30.2 °F 30.28 in NW 4.0 mph 7.0 mph 83 % 0.00 in 0 W/m2
06:33 34.9 °F 30.2 °F 30.28 in NW 6.0 mph 9.0 mph 83 % 0.00 in 0 W/m2
06:39 35.1 °F 30.4 °F 30.28 in WNW 7.0 mph 11.0 mph 83 % 0.00 in 0 W/m2
06:44 35.1 °F 30.4 °F 30.29 in WNW 4.0 mph 9.0 mph 83 % 0.00 in 0 W/m2
06:49 35.1 °F 30.4 °F 30.29 in WNW 4.0 mph 9.0 mph 83 % 0.00 in 0 W/m2
06:54 35.1 °F 30.4 °F 30.29 in WNW 4.0 mph 6.0 mph 83 % 0.00 in 0 W/m2
06:59 35.1 °F 30.4 °F 30.29 in WNW 4.0 mph 8.0 mph 83 % 0.00 in 0 W/m2
07:04 34.9 °F 30.2 °F 30.29 in WNW 1.0 mph 3.0 mph 83 % 0.00 in 0 W/m2
07:09 34.9 °F 30.2 °F 30.29 in West 2.0 mph 5.0 mph 83 % 0.00 in 0 W/m2
07:14 34.5 °F 29.9 °F 30.29 in West 1.0 mph 4.0 mph 83 % 0.00 in 0 W/m2
07:19 34.5 °F 30.2 °F 30.29 in West 1.0 mph 3.0 mph 84 % 0.00 in 5 W/m2
07:24 34.5 °F 30.2 °F 30.29 in WNW 3.0 mph 7.0 mph 84 % 0.00 in 5 W/m2
07:29 34.7 °F 30.4 °F 30.29 in WNW 3.0 mph 6.0 mph 84 % 0.00 in 7 W/m2
07:34 34.9 °F 30.8 °F 30.30 in WNW 4.0 mph 9.0 mph 85 % 0.00 in 9 W/m2
07:39 35.1 °F 30.7 °F 30.30 in WNW 2.0 mph 7.0 mph 84 % 0.00 in 12 W/m2
07:44 35.2 °F 30.9 °F 30.30 in WNW 1.0 mph 5.0 mph 84 % 0.00 in 18 W/m2
07:49 35.4 °F 31.1 °F 30.30 in WNW 4.0 mph 8.0 mph 84 % 0.00 in 28 W/m2
07:54 35.8 °F 31.4 °F 30.30 in WNW 5.0 mph 9.0 mph 84 % 0.00 in 39 W/m2
07:59 36.1 °F 31.8 °F 30.30 in WNW 5.0 mph 10.0 mph 84 % 0.00 in 51 W/m2
08:04 36.5 °F 31.8 °F 30.30 in WNW 6.0 mph 11.0 mph 83 % 0.00 in 47 W/m2
08:09 36.9 °F 31.9 °F 30.30 in WNW 7.0 mph 10.0 mph 82 % 0.00 in 42 W/m2
08:14 37.2 °F 31.9 °F 30.30 in WNW 6.0 mph 9.0 mph 81 % 0.00 in 42 W/m2
08:19 37.6 °F 32.3 °F 30.30 in WNW 6.0 mph 12.0 mph 81 % 0.00 in 40 W/m2
08:24 37.8 °F 32.1 °F 30.30 in WNW 5.0 mph 8.0 mph 80 % 0.00 in 49 W/m2
08:29 37.9 °F 32.3 °F 30.30 in WNW 3.0 mph 7.0 mph 80 % 0.00 in 60 W/m2
08:34 38.1 °F 32.2 °F 30.30 in WNW 4.0 mph 8.0 mph 79 % 0.00 in 47 W/m2
08:39 38.5 °F 32.5 °F 30.31 in WNW 5.0 mph 10.0 mph 79 % 0.00 in 51 W/m2
08:44 38.7 °F 32.7 °F 30.31 in WNW 5.0 mph 10.0 mph 79 % 0.00 in 49 W/m2
08:49 38.7 °F 32.4 °F 30.31 in WNW 4.0 mph 7.0 mph 78 % 0.00 in 58 W/m2
08:54 38.8 °F 32.6 °F 30.31 in WNW 6.0 mph 10.0 mph 78 % 0.00 in 65 W/m2
09:08 39.2 °F 32.9 °F 30.32 in NW 5.0 mph 8.0 mph 78 % 0.00 in 62 W/m2
09:13 39.4 °F 33.1 °F 30.31 in WNW 5.0 mph 10.0 mph 78 % 0.00 in 53 W/m2
09:18 39.6 °F 32.9 °F 30.32 in WNW 5.0 mph 9.0 mph 77 % 0.00 in 58 W/m2
09:23 39.7 °F 33.1 °F 30.32 in WNW 5.0 mph 8.0 mph 77 % 0.00 in 69 W/m2
09:28 39.7 °F 33.1 °F 30.32 in WNW 4.0 mph 8.0 mph 77 % 0.00 in 81 W/m2
09:33 39.9 °F 33.3 °F 30.32 in WNW 4.0 mph 8.0 mph 77 % 0.00 in 95 W/m2
09:38 39.9 °F 33.0 °F 30.32 in WNW 5.0 mph 10.0 mph 76 % 0.00 in 113 W/m2
09:43 40.3 °F 33.3 °F 30.32 in WNW 5.0 mph 9.0 mph 76 % 0.00 in 118 W/m2
09:48 40.5 °F 33.5 °F 30.32 in WNW 5.0 mph 8.0 mph 76 % 0.00 in 107 W/m2
09:53 40.6 °F 33.3 °F 30.32 in WNW 4.0 mph 9.0 mph 75 % 0.00 in 137 W/m2
09:58 40.8 °F 33.5 °F 30.32 in WNW 6.0 mph 10.0 mph 75 % 0.00 in 332 W/m2
10:03 41.5 °F 34.2 °F 30.32 in WNW 6.0 mph 9.0 mph 75 % 0.00 in 339 W/m2
10:08 42.1 °F 34.0 °F 30.32 in WNW 10.0 mph 13.0 mph 73 % 0.00 in 199 W/m2
10:13 42.4 °F 34.0 °F 30.32 in WNW 7.0 mph 13.0 mph 72 % 0.00 in 144 W/m2
10:18 42.4 °F 34.0 °F 30.33 in WNW 6.0 mph 10.0 mph 72 % 0.00 in 148 W/m2
10:23 42.4 °F 34.0 °F 30.33 in WNW 4.0 mph 9.0 mph 72 % 0.00 in 142 W/m2
10:28 42.4 °F 34.0 °F 30.33 in WNW 7.0 mph 12.0 mph 72 % 0.00 in 142 W/m2
10:33 42.3 °F 33.9 °F 30.33 in WNW 6.0 mph 10.0 mph 72 % 0.00 in 165 W/m2
10:43 42.4 °F 34.0 °F 30.33 in NW 5.0 mph 11.0 mph 72 % 0.00 in 148 W/m2
10:48 42.6 °F 34.2 °F 30.33 in WNW 6.0 mph 11.0 mph 72 % 0.00 in 139 W/m2
10:53 42.6 °F 34.2 °F 30.33 in WNW 7.0 mph 11.0 mph 72 % 0.00 in 125 W/m2
10:58 42.6 °F 33.9 °F 30.33 in WNW 6.0 mph 8.0 mph 71 % 0.00 in 139 W/m2
11:03 42.6 °F 33.9 °F 30.32 in NW 5.0 mph 8.0 mph 71 % 0.00 in 135 W/m2
11:08 42.6 °F 34.2 °F 30.32 in WNW 6.0 mph 11.0 mph 72 % 0.00 in 148 W/m2
11:14 42.6 °F 34.2 °F 30.32 in WNW 5.0 mph 9.0 mph 72 % 0.00 in 148 W/m2
11:19 42.8 °F 34.0 °F 30.32 in WNW 4.0 mph 7.0 mph 71 % 0.00 in 141 W/m2
11:24 43.0 °F 34.2 °F 30.32 in WNW 7.0 mph 9.0 mph 71 % 0.00 in 123 W/m2
11:29 43.0 °F 34.2 °F 30.32 in WNW 5.0 mph 9.0 mph 71 % 0.00 in 104 W/m2
11:34 43.0 °F 34.2 °F 30.32 in WNW 6.0 mph 8.0 mph 71 % 0.00 in 113 W/m2
11:39 43.0 °F 34.2 °F 30.32 in WNW 7.0 mph 11.0 mph 71 % 0.00 in 91 W/m2
11:44 43.2 °F 34.4 °F 30.32 in WNW 6.0 mph 11.0 mph 71 % 0.00 in 102 W/m2
11:49 43.2 °F 34.4 °F 30.32 in WNW 6.0 mph 9.0 mph 71 % 0.00 in 84 W/m2
11:54 43.2 °F 34.4 °F 30.32 in WNW 5.0 mph 7.0 mph 71 % 0.00 in 79 W/m2
11:59 43.0 °F 34.2 °F 30.32 in West 6.0 mph 10.0 mph 71 % 0.00 in 81 W/m2
12:04 43.0 °F 34.6 °F 30.31 in WNW 4.0 mph 6.0 mph 72 % 0.00 in 95 W/m2
12:10 43.0 °F 34.6 °F 30.31 in WNW 2.0 mph 5.0 mph 72 % 0.00 in 105 W/m2
12:15 43.0 °F 34.6 °F 30.31 in WNW 4.0 mph 8.0 mph 72 % 0.00 in 77 W/m2
12:20 43.2 °F 34.7 °F 30.31 in WNW 6.0 mph 10.0 mph 72 % 0.00 in 79 W/m2
12:25 43.2 °F 34.7 °F 30.31 in WNW 6.0 mph 9.0 mph 72 % 0.00 in 53 W/m2
12:30 43.2 °F 34.4 °F 30.31 in NW 5.0 mph 8.0 mph 71 % 0.00 in 49 W/m2
12:35 43.2 °F 34.4 °F 30.31 in NW 5.0 mph 8.0 mph 71 % 0.00 in 51 W/m2
12:40 43.0 °F 33.9 °F 30.31 in NNW 8.0 mph 12.0 mph 70 % 0.00 in 56 W/m2
12:45 42.4 °F 33.7 °F 30.31 in North 6.0 mph 9.0 mph 71 % 0.00 in 83 W/m2
12:50 42.3 °F 33.9 °F 30.30 in NNW 3.0 mph 7.0 mph 72 % 0.00 in 95 W/m2
12:55 42.1 °F 34.0 °F 30.30 in NW 1.0 mph 6.0 mph 73 % 0.00 in 113 W/m2
13:00 42.1 °F 33.7 °F 30.30 in Calm   2.0 mph 72 % 0.00 in 109 W/m2
13:05 42.3 °F 33.9 °F 30.29 in Calm   1.0 mph 72 % 0.00 in 127 W/m2
13:10 42.3 °F 33.5 °F 30.29 in Calm     71 % 0.00 in 158 W/m2
13:15 42.6 °F 33.9 °F 30.29 in NW 2.0 mph 4.0 mph 71 % 0.00 in 141 W/m2
13:20 43.0 °F 34.2 °F 30.29 in WNW 1.0 mph 4.0 mph 71 % 0.00 in 137 W/m2
13:25 43.2 °F 34.7 °F 30.29 in WNW 2.0 mph 6.0 mph 72 % 0.00 in 134 W/m2
13:30 43.3 °F 34.9 °F 30.29 in West 3.0 mph 7.0 mph 72 % 0.00 in 91 W/m2
13:35 43.5 °F 35.1 °F 30.28 in West 5.0 mph 7.0 mph 72 % 0.00 in 79 W/m2
13:40 43.3 °F 34.6 °F 30.28 in West 2.0 mph 5.0 mph 71 % 0.00 in 62 W/m2
13:45 43.3 °F 34.6 °F 30.28 in West 2.0 mph 4.0 mph 71 % 0.00 in 107 W/m2
13:50 43.3 °F 34.6 °F 30.28 in West 4.0 mph 6.0 mph 71 % 0.00 in 88 W/m2
13:55 43.3 °F 34.6 °F 30.27 in West 3.0 mph 5.0 mph 71 % 0.00 in 95 W/m2
14:00 43.5 °F 34.7 °F 30.28 in West 2.0 mph 8.0 mph 71 % 0.00 in 123 W/m2
14:05 43.5 °F 34.4 °F 30.28 in West 5.0 mph 9.0 mph 70 % 0.00 in 135 W/m2
14:10 43.7 °F 33.8 °F 30.27 in West 5.0 mph 9.0 mph 68 % 0.00 in 93 W/m2
14:16 43.7 °F 33.8 °F 30.27 in WNW 4.0 mph 9.0 mph 68 % 0.00 in 76 W/m2
14:21 43.7 °F 33.8 °F 30.27 in WNW 6.0 mph 11.0 mph 68 % 0.00 in 67 W/m2
14:26 43.7 °F 33.5 °F 30.27 in West 6.0 mph 11.0 mph 67 % 0.00 in 40 W/m2
14:31 43.7 °F 33.8 °F 30.27 in West 7.0 mph 11.0 mph 68 % 0.00 in 53 W/m2
14:36 43.7 °F 33.8 °F 30.27 in WNW 2.0 mph 6.0 mph 68 % 0.00 in 60 W/m2
14:41 43.7 °F 34.2 °F 30.26 in WNW 3.0 mph 6.0 mph 69 % 0.00 in 79 W/m2
14:46 43.9 °F 34.4 °F 30.26 in WNW 5.0 mph 12.0 mph 69 % 0.00 in 70 W/m2
14:51 43.7 °F 34.2 °F 30.26 in WNW 7.0 mph 11.0 mph 69 % 0.00 in 60 W/m2
14:56 43.7 °F 34.6 °F 30.27 in WNW 6.0 mph 10.0 mph 70 % 0.00 in 44 W/m2
15:01 43.7 °F 34.6 °F 30.26 in WNW 9.0 mph 12.0 mph 70 % 0.00 in 49 W/m2
15:06 43.7 °F 34.6 °F 30.26 in West 5.0 mph 8.0 mph 70 % 0.00 in 42 W/m2
15:11 43.7 °F 34.9 °F 30.26 in West 4.0 mph 7.0 mph 71 % 0.00 in 32 W/m2
15:16 43.5 °F 34.7 °F 30.26 in West 5.0 mph 9.0 mph 71 % 0.00 in 23 W/m2
15:21 43.5 °F 34.7 °F 30.26 in WNW 8.0 mph 13.0 mph 71 % 0.00 in 21 W/m2
15:26 43.5 °F 35.1 °F 30.26 in WNW 5.0 mph 11.0 mph 72 % 0.00 in 23 W/m2
15:31 43.5 °F 35.1 °F 30.26 in West 4.0 mph 9.0 mph 72 % 0.00 in 28 W/m2
15:36 43.5 °F 35.1 °F 30.26 in WNW 3.0 mph 7.0 mph 72 % 0.00 in 23 W/m2
15:41 43.5 °F 35.4 °F 30.25 in West 3.0 mph 5.0 mph 73 % 0.00 in 16 W/m2
15:46 43.3 °F 35.3 °F 30.25 in West 5.0 mph 9.0 mph 73 % 0.00 in 12 W/m2
15:51 43.2 °F 35.1 °F 30.25 in West 4.0 mph 8.0 mph 73 % 0.00 in 9 W/m2
15:56 43.0 °F 35.3 °F 30.26 in West 6.0 mph 9.0 mph 74 % 0.00 in 7 W/m2
16:01 43.0 °F 35.3 °F 30.26 in West 4.0 mph 9.0 mph 74 % 0.00 in 5 W/m2
16:06 42.8 °F 35.1 °F 30.26 in West 7.0 mph 11.0 mph 74 % 0.00 in 0 W/m2
16:11 42.6 °F 34.9 °F 30.26 in West 7.0 mph 11.0 mph 74 % 0.00 in 0 W/m2
16:16 42.6 °F 35.2 °F 30.26 in West 6.0 mph 9.0 mph 75 % 0.00 in 0 W/m2
16:21 42.6 °F 35.2 °F 30.26 in WNW 4.0 mph 8.0 mph 75 % 0.00 in 0 W/m2
16:26 42.6 °F 35.2 °F 30.26 in West 2.0 mph 5.0 mph 75 % 0.00 in 0 W/m2
16:31 42.4 °F 35.1 °F 30.25 in WNW 2.0 mph 5.0 mph 75 % 0.00 in 0 W/m2
16:36 42.4 °F 35.4 °F 30.25 in WNW 4.0 mph 7.0 mph 76 % 0.00 in 0 W/m2
16:41 42.4 °F 35.4 °F 30.25 in WNW 2.0 mph 5.0 mph 76 % 0.00 in 0 W/m2
16:46 42.4 °F 35.4 °F 30.25 in WNW 2.0 mph 5.0 mph 76 % 0.00 in 0 W/m2
16:51 42.4 °F 35.4 °F 30.25 in WNW 1.0 mph 1.0 mph 76 % 0.00 in 0 W/m2
16:56 42.4 °F 35.4 °F 30.25 in WNW 1.0 mph 3.0 mph 76 % 0.00 in 0 W/m2
17:01 42.4 °F 35.7 °F 30.25 in West 2.0 mph 5.0 mph 77 % 0.00 in 0 W/m2
17:06 42.4 °F 35.7 °F 30.25 in WSW 3.0 mph 7.0 mph 77 % 0.00 in 0 W/m2
17:11 42.6 °F 35.9 °F 30.25 in WSW 1.0 mph 3.0 mph 77 % 0.00 in 0 W/m2
17:16 42.6 °F 35.9 °F 30.25 in WSW 2.0 mph 5.0 mph 77 % 0.00 in 0 W/m2
17:21 42.6 °F 35.9 °F 30.25 in Calm   2.0 mph 77 % 0.00 in 0 W/m2
17:26 42.6 °F 35.9 °F 30.25 in WSW 1.0 mph 4.0 mph 77 % 0.00 in 0 W/m2
17:31 42.6 °F 35.9 °F 30.25 in West 2.0 mph 5.0 mph 77 % 0.00 in 0 W/m2
17:36 42.6 °F 35.9 °F 30.25 in WSW 2.0 mph 5.0 mph 77 % 0.00 in 0 W/m2
17:41 42.8 °F 36.1 °F 30.25 in WSW 3.0 mph 5.0 mph 77 % 0.00 in 0 W/m2
17:46 42.6 °F 35.9 °F 30.24 in Calm   1.0 mph 77 % 0.00 in 0 W/m2
17:47 42.6 °F 35.9 °F 30.24 in Calm   1.0 mph 77 % 0.00 in 0 W/m2
17:52 42.6 °F 35.9 °F 30.24 in WSW 1.0 mph 3.0 mph 77 % 0.00 in 0 W/m2
17:57 42.8 °F 36.1 °F 30.24 in WSW 5.0 mph 9.0 mph 77 % 0.00 in 0 W/m2
18:02 42.8 °F 36.1 °F 30.24 in WSW 6.0 mph 9.0 mph 77 % 0.00 in 0 W/m2
18:07 42.8 °F 36.1 °F 30.24 in SW 5.0 mph 8.0 mph 77 % 0.00 in 0 W/m2
18:12 43.0 °F 36.3 °F 30.24 in WSW 8.0 mph 13.0 mph 77 % 0.00 in 0 W/m2
18:17 43.0 °F 36.3 °F 30.24 in WSW 7.0 mph 12.0 mph 77 % 0.00 in 0 W/m2
18:22 43.0 °F 36.3 °F 30.24 in SW 9.0 mph 12.0 mph 77 % 0.00 in 0 W/m2
18:27 43.0 °F 36.3 °F 30.24 in WSW 8.0 mph 11.0 mph 77 % 0.00 in 0 W/m2
18:32 43.0 °F 36.3 °F 30.23 in SW 7.0 mph 11.0 mph 77 % 0.00 in 0 W/m2
18:37 42.8 °F 36.1 °F 30.23 in SW 5.0 mph 9.0 mph 77 % 0.00 in 0 W/m2
18:42 42.8 °F 36.1 °F 30.23 in SW 7.0 mph 11.0 mph 77 % 0.00 in 0 W/m2
18:47 42.6 °F 35.9 °F 30.23 in WSW 4.0 mph 6.0 mph 77 % 0.00 in 0 W/m2
18:52 42.6 °F 36.2 °F 30.23 in SW 2.0 mph 6.0 mph 78 % 0.00 in 0 W/m2
18:57 42.6 °F 36.2 °F 30.23 in WSW 3.0 mph 6.0 mph 78 % 0.00 in 0 W/m2
19:02 42.6 °F 36.2 °F 30.22 in SW 6.0 mph 10.0 mph 78 % 0.00 in 0 W/m2
19:07 42.6 °F 36.6 °F 30.22 in SW 5.0 mph 8.0 mph 79 % 0.00 in 0 W/m2
19:12 42.6 °F 36.6 °F 30.22 in SW 6.0 mph 9.0 mph 79 % 0.00 in 0 W/m2
19:17 42.6 °F 36.6 °F 30.22 in SW 4.0 mph 6.0 mph 79 % 0.00 in 0 W/m2
19:22 42.6 °F 36.6 °F 30.22 in SW 4.0 mph 7.0 mph 79 % 0.00 in 0 W/m2
19:27 42.6 °F 36.9 °F 30.22 in SW 4.0 mph 6.0 mph 80 % 0.00 in 0 W/m2
19:32 42.8 °F 37.1 °F 30.22 in SW 2.0 mph 6.0 mph 80 % 0.00 in 0 W/m2
19:37 42.8 °F 37.1 °F 30.21 in SW 2.0 mph 5.0 mph 80 % 0.00 in 0 W/m2
19:42 42.8 °F 37.1 °F 30.21 in SSW 4.0 mph 6.0 mph 80 % 0.00 in 0 W/m2
19:47 42.8 °F 37.1 °F 30.21 in SW 3.0 mph 6.0 mph 80 % 0.00 in 0 W/m2
19:52 42.8 °F 37.1 °F 30.21 in SW 2.0 mph 5.0 mph 80 % 0.00 in 0 W/m2
19:57 42.8 °F 37.1 °F 30.20 in SW 1.0 mph 4.0 mph 80 % 0.00 in 0 W/m2
20:02 42.8 °F 37.4 °F 30.20 in SW 1.0 mph 4.0 mph 81 % 0.00 in 0 W/m2
20:07 42.8 °F 37.4 °F 30.20 in Calm   1.0 mph 81 % 0.00 in 0 W/m2
20:12 43.0 °F 37.5 °F 30.20 in Calm     81 % 0.00 in 0 W/m2
20:17 43.0 °F 37.5 °F 30.20 in SSW 1.0 mph 4.0 mph 81 % 0.00 in 0 W/m2
20:22 43.0 °F 37.9 °F 30.20 in SSW 1.0 mph 2.0 mph 82 % 0.00 in 0 W/m2
20:27 43.0 °F 37.9 °F 30.20 in Calm     82 % 0.00 in 0 W/m2
20:32 43.2 °F 38.0 °F 30.20 in Calm   2.0 mph 82 % 0.00 in 0 W/m2
20:37 43.3 °F 38.2 °F 30.20 in WSW 6.0 mph 10.0 mph 82 % 0.00 in 0 W/m2
20:42 43.7 °F 38.3 °F 30.20 in WSW 5.0 mph 10.0 mph 81 % 0.00 in 0 W/m2
20:47 44.1 °F 38.6 °F 30.19 in West 8.0 mph 11.0 mph 81 % 0.00 in 0 W/m2
20:52 44.4 °F 38.6 °F 30.19 in WSW 10.0 mph 16.0 mph 80 % 0.00 in 0 W/m2
20:57 44.8 °F 38.7 °F 30.19 in SW 7.0 mph 14.0 mph 79 % 0.00 in 0 W/m2
21:02 44.8 °F 38.3 °F 30.19 in WSW 6.0 mph 11.0 mph 78 % 0.00 in 0 W/m2
21:07 45.0 °F 38.5 °F 30.19 in WSW 8.0 mph 12.0 mph 78 % 0.00 in 0 W/m2
21:12 45.0 °F 38.2 °F 30.18 in WSW 8.0 mph 13.0 mph 77 % 0.00 in 0 W/m2
21:17 45.1 °F 38.4 °F 30.18 in WSW 6.0 mph 10.0 mph 77 % 0.00 in 0 W/m2
21:22 45.1 °F 38.4 °F 30.18 in WSW 7.0 mph 13.0 mph 77 % 0.00 in 0 W/m2
21:27 45.1 °F 38.0 °F 30.18 in SW 7.0 mph 9.0 mph 76 % 0.00 in 0 W/m2
21:32 45.1 °F 38.0 °F 30.18 in WSW 4.0 mph 9.0 mph 76 % 0.00 in 0 W/m2
21:37 45.1 °F 38.0 °F 30.17 in WSW 7.0 mph 11.0 mph 76 % 0.00 in 0 W/m2
21:42 45.1 °F 38.0 °F 30.17 in WSW 7.0 mph 13.0 mph 76 % 0.00 in 0 W/m2
21:47 45.1 °F 38.4 °F 30.17 in WSW 8.0 mph 12.0 mph 77 % 0.00 in 0 W/m2
21:52 45.3 °F 38.5 °F 30.16 in WSW 6.0 mph 10.0 mph 77 % 0.00 in 0 W/m2
21:57 45.3 °F 38.5 °F 30.17 in West 8.0 mph 11.0 mph 77 % 0.00 in 0 W/m2
22:03 45.3 °F 38.9 °F 30.17 in West 12.0 mph 16.0 mph 78 % 0.00 in 0 W/m2
22:08 45.5 °F 39.0 °F 30.17 in WSW 7.0 mph 11.0 mph 78 % 0.00 in 0 W/m2
22:13 45.5 °F 39.4 °F 30.17 in WSW 7.0 mph 11.0 mph 79 % 0.00 in 0 W/m2
22:18 45.5 °F 39.4 °F 30.17 in WSW 5.0 mph 7.0 mph 79 % 0.00 in 0 W/m2
22:23 45.5 °F 39.7 °F 30.17 in WSW 5.0 mph 9.0 mph 80 % 0.00 in 0 W/m2
22:28 45.5 °F 40.0 °F 30.16 in WSW 7.0 mph 11.0 mph 81 % 0.00 in 0 W/m2
22:33 45.5 °F 40.3 °F 30.16 in WSW 9.0 mph 15.0 mph 82 % 0.00 in 0 W/m2
22:38 45.7 °F 40.5 °F 30.16 in WSW 8.0 mph 12.0 mph 82 % 0.00 in 0 W/m2
22:43 45.5 °F 40.3 °F 30.15 in WSW 5.0 mph 10.0 mph 82 % 0.00 in 0 W/m2
22:48 45.3 °F 40.5 °F 30.15 in WSW 7.0 mph 12.0 mph 83 % 0.00 in 0 W/m2
22:53 45.3 °F 40.8 °F 30.15 in WSW 7.0 mph 13.0 mph 84 % 0.00 in 0 W/m2
22:58 45.3 °F 40.8 °F 30.15 in WSW 7.0 mph 14.0 mph 84 % 0.00 in 0 W/m2
23:03 45.3 °F 41.1 °F 30.15 in WSW 8.0 mph 12.0 mph 85 % 0.00 in 0 W/m2
23:08 45.1 °F 40.9 °F 30.15 in WSW 10.0 mph 19.0 mph 85 % 0.00 in 0 W/m2
23:13 45.1 °F 41.2 °F 30.14 in WSW 9.0 mph 15.0 mph 86 % 0.00 in 0 W/m2
23:18 45.1 °F 41.2 °F 30.14 in WSW 7.0 mph 13.0 mph 86 % 0.00 in 0 W/m2
23:23 45.1 °F 41.2 °F 30.13 in WSW 7.0 mph 12.0 mph 86 % 0.00 in 0 W/m2
23:28 45.1 °F 41.5 °F 30.13 in WSW 7.0 mph 12.0 mph 87 % 0.00 in 0 W/m2
23:33 45.1 °F 41.5 °F 30.13 in SW 5.0 mph 10.0 mph 87 % 0.00 in 0 W/m2
23:38 45.1 °F 41.5 °F 30.13 in SW 7.0 mph 13.0 mph 87 % 0.00 in 0 W/m2
23:43 45.1 °F 41.5 °F 30.13 in SW 6.0 mph 11.0 mph 87 % 0.00 in 0 W/m2
23:48 45.3 °F 42.0 °F 30.13 in SW 5.0 mph 8.0 mph 88 % 0.00 in 0 W/m2
23:53 45.3 °F 42.0 °F 30.13 in SSW 3.0 mph 7.0 mph 88 % 0.00 in 0 W/m2
23:58 45.5 °F 42.2 °F 30.13 in SW 4.0 mph 8.0 mph 88 % 0.00 in 0 W/m2
Delerius-Weather
Compliments of Weather Underground - 2.25 mb

Data updates at regular intervals.